This is the latest recevied weather packets stored in our database for station/object WX9EMS. If no packets are shown the sender has not sent any weather packets the latest 10 day(s).
| Time | Temp. | Humidity | Pressure | Rain* | Wind** | Luminosity | Snow |
|---|---|---|---|---|---|---|---|
| 1777641384 | - | - | - | 0 mm | - | - | - |
| 1777631126 | 2.78° C | 99% | 1017.1 hPa | 0 mm | - | - | - |
| 1777629926 | 2.78° C | 99% | 1016.9 hPa | 0 mm | - | - | - |
| 1777624545 | - | - | - | 0 mm | - | - | - |
| 1777623326 | 2.78° C | 99% | 1016.6 hPa | 0 mm | - | - | - |
| 1777622746 | 2.78° C | 99% | 1016.6 hPa | 0 mm | - | - | - |
| 1777616146 | 3.33° C | 99% | 1017 hPa | 0.76 mm | - | - | - |
| 1777607576 | 3.33° C | 99% | 1016.8 hPa | 0 mm | - | - | - |
| 1777604125 | 3.89° C | 99% | 1016.6 hPa | 0.25 mm | - | - | - |
| 1777603525 | 3.89° C | 99% | 1016.5 hPa | 0.25 mm | - | - | - |
| 1777601125 | 3.89° C | 99% | 1016.7 hPa | 0.25 mm | - | - | - |
| 1777543237 | 0° C | 99% | 1017.9 hPa | 0 mm | - | - | - |
| 1777541737 | 1.11° C | 99% | 1017.8 hPa | 0 mm | - | - | - |
| 1777539955 | 1.67° C | 99% | 1017.7 hPa | 0 mm | - | - | - |
| 1777536356 | 2.78° C | 99% | 1017.6 hPa | 0 mm | - | - | - |
| 1777533636 | 2.78° C | 99% | 1017.7 hPa | 0.25 mm | - | - | - |
| 1777528854 | 2.22° C | 99% | 1018.1 hPa | 0 mm | - | - | - |
| 1777527675 | 2.78° C | 99% | 1018.2 hPa | 0 mm | - | - | - |
| 1777523735 | 3.33° C | 99% | 1018.1 hPa | 0 mm | - | - | - |
| 1777512055 | 6.11° C | 99% | 1017.7 hPa | 1.78 mm | - | - | - |
| 1777453530 | 8.89° C | 99% | 1014.8 hPa | 0 mm | - | - | - |
| 1777451130 | 9.44° C | 97% | 1015 hPa | 0 mm | - | - | - |
| 1777446929 | - | - | - | 0 mm | - | - | - |
| 1777446406 | 11.11° C | 77% | 1014.5 hPa | 0 mm | - | - | - |
| 1777445749 | 11.67° C | 76% | 1014.7 hPa | 0 mm | - | - | - |
* Rain latest hour (hover to see other rain measurements)
** Current wind speed in m/s (hover to see current wind gust speed)